createdAt,value
2018-08-10T00:00:23.522Z,66.36
2018-08-10T00:05:27.441Z,65.21
2018-08-10T00:10:31.084Z,64.96
2018-08-10T00:15:35.451Z,66.07
2018-08-10T00:20:39.281Z,66.99
2018-08-10T00:25:42.789Z,71.48
2018-08-10T00:30:46.419Z,73.54
2018-08-10T00:35:49.946Z,72.42
2018-08-10T00:40:54.433Z,70.22
2018-08-10T00:45:57.952Z,70.56
2018-08-10T00:51:01.728Z,70.00
2018-08-10T00:56:05.340Z,70.26
2018-08-10T01:01:08.978Z,70.37
2018-08-10T01:06:12.601Z,70.14
2018-08-10T01:11:16.863Z,70.52
2018-08-10T01:16:20.388Z,70.34
2018-08-10T01:21:23.951Z,70.00
2018-08-10T01:26:27.604Z,69.93
2018-08-10T01:31:31.276Z,69.85
2018-08-10T01:36:35.039Z,69.63
2018-08-10T01:41:38.906Z,68.50
2018-08-10T01:46:42.431Z,67.52
2018-08-10T01:51:46.122Z,67.30
2018-08-10T01:56:49.787Z,66.92
2018-08-10T02:01:54.271Z,66.63
2018-08-10T02:06:57.867Z,66.78
2018-08-10T02:12:01.393Z,67.78
2018-08-10T02:17:05.110Z,67.86
2018-08-10T02:22:08.677Z,67.03
2018-08-10T02:27:12.287Z,67.39
2018-08-10T02:32:16.509Z,68.11
2018-08-10T02:37:20.032Z,68.22
2018-08-10T02:42:23.656Z,67.84
2018-08-10T02:47:27.235Z,68.66
2018-08-10T02:52:31.023Z,68.47
2018-08-10T02:57:34.542Z,68.58
2018-08-10T03:02:38.138Z,68.26
2018-08-10T03:07:42.313Z,67.83
2018-08-10T03:12:45.892Z,67.30
2018-08-10T03:17:49.554Z,67.06
2018-08-10T03:22:53.172Z,66.58
2018-08-10T03:27:56.769Z,66.54
2018-08-10T03:33:00.631Z,66.49
2018-08-10T03:38:04.552Z,66.24
2018-08-10T03:43:08.205Z,66.08
2018-08-10T03:48:11.786Z,66.60
2018-08-10T03:53:15.801Z,66.20
2018-08-10T03:58:19.451Z,66.23
2018-08-10T04:03:23.177Z,67.06
2018-08-10T04:08:26.704Z,66.20
2018-08-10T04:13:30.934Z,66.18
2018-08-10T04:18:34.762Z,66.57
2018-08-10T04:23:38.511Z,66.89
2018-08-10T04:28:42.027Z,67.16
2018-08-10T04:33:45.631Z,68.00
2018-08-10T04:38:56.448Z,68.05
2018-08-10T04:44:00.142Z,67.97
2018-08-10T04:49:04.373Z,68.03
2018-08-10T04:54:07.856Z,68.56
2018-08-10T04:59:11.437Z,69.02
2018-08-10T05:04:15.397Z,67.18
2018-08-10T05:09:18.981Z,66.14
2018-08-10T05:14:22.612Z,68.06
2018-08-10T05:19:26.205Z,67.79
2018-08-10T05:24:29.834Z,68.10
2018-08-10T05:29:33.498Z,68.49
2018-08-10T05:34:36.993Z,68.46
2018-08-10T05:39:40.615Z,67.75
2018-08-10T05:44:44.135Z,67.88
2018-08-10T05:49:47.884Z,67.81
2018-08-10T05:54:51.430Z,67.17
2018-08-10T05:59:55.026Z,66.97
2018-08-10T06:04:58.622Z,66.95
2018-08-10T06:10:02.350Z,66.33
2018-08-10T06:15:07.393Z,66.85
2018-08-10T06:20:11.943Z,66.16
2018-08-10T06:25:16.237Z,65.81
2018-08-10T06:30:29.415Z,65.60
2018-08-10T06:35:32.988Z,65.19
2018-08-10T06:40:36.778Z,64.50
2018-08-10T06:45:40.313Z,63.09
2018-08-10T06:50:44.142Z,61.76
2018-08-10T06:55:47.678Z,62.73
2018-08-10T07:00:51.224Z,61.59
2018-08-10T07:05:54.744Z,61.33
2018-08-10T07:11:35.982Z,60.78
2018-08-10T07:16:39.597Z,59.69
2018-08-10T07:21:43.172Z,57.69
2018-08-10T07:26:46.726Z,58.23
2018-08-10T07:31:50.586Z,58.70
2018-08-10T07:36:54.195Z,57.05
2018-08-10T07:41:58.271Z,56.13
2018-08-10T07:47:01.768Z,55.03
2018-08-10T07:52:05.609Z,55.80
2018-08-10T07:57:09.327Z,55.09
2018-08-10T08:02:13.323Z,55.33
2018-08-10T08:07:16.875Z,56.52
2018-08-10T08:12:20.510Z,53.54
2018-08-10T08:17:24.073Z,52.14
2018-08-10T08:22:27.776Z,53.27
2018-08-10T08:27:31.411Z,49.43
2018-08-10T08:32:35.645Z,49.30
2018-08-10T08:37:39.408Z,49.59
2018-08-10T08:42:44.696Z,48.80
2018-08-10T08:47:50.914Z,50.11
2018-08-10T08:52:54.567Z,47.93
2018-08-10T08:57:58.158Z,50.37
2018-08-10T09:03:01.954Z,48.99
2018-08-10T09:08:07.106Z,49.29
2018-08-10T09:13:10.736Z,50.05
2018-08-10T09:18:14.634Z,49.41
2018-08-10T09:23:18.579Z,48.66
2018-08-10T09:28:22.174Z,47.18
2018-08-10T09:33:25.856Z,46.51
2018-08-10T09:38:29.602Z,46.23
2018-08-10T09:43:34.582Z,46.46
2018-08-10T09:48:38.174Z,47.15
2018-08-10T09:53:42.048Z,45.46
2018-08-10T09:58:45.794Z,44.31
2018-08-10T10:03:49.718Z,45.37
2018-08-10T10:08:53.417Z,45.17
2018-08-10T10:13:56.997Z,43.37
2018-08-10T10:19:00.549Z,43.73
2018-08-10T10:24:04.142Z,42.23
2018-08-10T10:29:07.736Z,40.20
2018-08-10T10:34:11.519Z,40.34
2018-08-10T10:39:15.255Z,37.82
2018-08-10T10:44:18.816Z,38.60
2018-08-10T10:49:22.503Z,38.66
2018-08-10T10:54:26.248Z,39.13
2018-08-10T10:59:29.872Z,38.54
2018-08-10T11:04:33.506Z,38.09
2018-08-10T11:09:37.292Z,38.78
2018-08-10T11:14:40.882Z,37.28
2018-08-10T11:19:44.536Z,35.27
2018-08-10T11:24:48.184Z,35.20
2018-08-10T11:29:51.745Z,36.63
2018-08-10T11:34:55.411Z,35.83
2018-08-10T11:39:58.945Z,38.04
2018-08-10T11:45:02.941Z,37.64
2018-08-10T11:50:06.888Z,37.39
2018-08-10T11:55:12.495Z,36.29
2018-08-10T12:00:17.771Z,35.57
2018-08-10T12:05:21.386Z,37.23
2018-08-10T12:10:24.873Z,33.89
2018-08-10T12:15:28.508Z,33.35
2018-08-10T12:20:32.094Z,34.12
2018-08-10T12:25:35.678Z,34.59
2018-08-10T12:30:40.091Z,33.29
2018-08-10T12:35:44.722Z,32.33
2018-08-10T12:40:48.189Z,32.96
2018-08-10T12:45:51.891Z,31.44
2018-08-10T12:50:55.517Z,31.97
2018-08-10T12:55:59.135Z,31.34
2018-08-10T13:01:08.558Z,30.91
2018-08-10T13:06:12.325Z,31.94
2018-08-10T13:11:15.966Z,30.86
2018-08-10T13:16:19.977Z,33.70
2018-08-10T13:21:23.480Z,31.84
2018-08-10T13:26:27.711Z,33.04
2018-08-10T13:31:31.336Z,32.83
2018-08-10T13:36:34.992Z,31.98
2018-08-10T13:41:38.963Z,31.40
2018-08-10T13:46:42.634Z,29.93
2018-08-10T13:51:46.291Z,31.59
2018-08-10T13:56:50.038Z,31.38
2018-08-10T14:01:54.528Z,31.57
2018-08-10T14:06:58.358Z,31.26
2018-08-10T14:12:02.668Z,31.86
2018-08-10T14:17:06.266Z,31.59
2018-08-10T14:22:09.990Z,31.90
2018-08-10T14:27:13.608Z,31.67
2018-08-10T14:32:17.484Z,30.49
2018-08-10T14:37:21.082Z,30.51
2018-08-10T14:42:25.312Z,31.23
2018-08-10T14:47:29.133Z,31.34
2018-08-10T14:52:32.762Z,30.04
2018-08-10T14:57:36.477Z,31.56
2018-08-10T15:02:40.223Z,31.88
2018-08-10T15:07:44.254Z,32.32
2018-08-10T15:12:48.551Z,31.80
2018-08-10T15:17:52.607Z,31.83
2018-08-10T15:22:56.138Z,31.30
2018-08-10T15:27:59.736Z,31.55
2018-08-10T15:33:03.326Z,30.48
2018-08-10T15:38:07.253Z,30.56
2018-08-10T15:43:10.807Z,31.55
2018-08-10T15:48:14.705Z,31.07
2018-08-10T15:53:18.231Z,30.32
2018-08-10T15:58:21.902Z,30.96
2018-08-10T16:03:25.527Z,31.69
2018-08-10T16:08:29.183Z,31.67
2018-08-10T16:13:32.767Z,32.81
2018-08-10T16:18:37.305Z,30.57
2018-08-10T16:23:40.930Z,31.59
2018-08-10T16:28:44.520Z,31.17
2018-08-10T16:33:48.232Z,31.16
2018-08-10T16:38:51.863Z,31.33
2018-08-10T16:44:00.194Z,30.36
2018-08-10T16:49:04.763Z,29.33
2018-08-10T16:54:08.519Z,28.27
2018-08-10T16:59:12.603Z,27.84
2018-08-10T17:04:16.189Z,27.55
2018-08-10T17:09:20.702Z,27.41
2018-08-10T17:14:24.371Z,25.49
2018-08-10T17:19:36.212Z,25.61
2018-08-10T17:24:39.895Z,24.03
2018-08-10T17:29:43.476Z,24.55
2018-08-10T17:34:47.183Z,25.69
2018-08-10T17:39:50.746Z,26.42
2018-08-10T17:44:54.272Z,28.99
2018-08-10T17:49:58.038Z,29.23
2018-08-10T17:55:01.644Z,30.33
2018-08-10T18:00:06.906Z,31.36
2018-08-10T18:05:13.251Z,32.06
2018-08-10T18:10:18.371Z,32.26
2018-08-10T18:15:21.970Z,32.85
2018-08-10T18:20:26.207Z,33.25
2018-08-10T18:25:30.126Z,33.55
2018-08-10T18:30:33.716Z,34.05
2018-08-10T18:35:37.611Z,35.72
2018-08-10T18:40:41.250Z,37.35
2018-08-10T18:45:45.074Z,37.53
2018-08-10T18:50:49.044Z,37.82
2018-08-10T18:55:53.682Z,38.49
2018-08-10T19:00:57.449Z,39.01
2018-08-10T19:06:01.172Z,39.68
2018-08-10T19:11:05.720Z,40.47
2018-08-10T19:16:09.300Z,41.11
2018-08-10T19:21:13.084Z,42.09
2018-08-10T19:26:16.614Z,42.65
2018-08-10T19:31:20.348Z,42.77
2018-08-10T19:36:23.990Z,42.94
2018-08-10T19:41:27.589Z,42.84
2018-08-10T19:46:31.530Z,42.71
2018-08-10T19:51:35.355Z,42.85
2018-08-10T19:56:38.970Z,42.71
2018-08-10T20:01:46.654Z,42.97
2018-08-10T20:06:50.212Z,43.07
2018-08-10T20:11:54.104Z,43.41
2018-08-10T20:16:57.611Z,44.34
2018-08-10T20:22:01.255Z,45.10
2018-08-10T20:27:05.023Z,46.75
2018-08-10T20:32:08.827Z,46.95
2018-08-10T20:37:12.501Z,45.56
2018-08-10T20:42:16.169Z,45.50
2018-08-10T20:47:20.297Z,45.37
2018-08-10T20:52:23.885Z,46.04
2018-08-10T20:57:27.471Z,46.74
2018-08-10T21:02:31.568Z,47.05
2018-08-10T21:07:35.255Z,47.08
2018-08-10T21:12:39.348Z,47.00
2018-08-10T21:17:43.812Z,46.47
2018-08-10T21:22:47.583Z,47.27
2018-08-10T21:27:51.219Z,47.23
2018-08-10T21:32:54.811Z,47.61
2018-08-10T21:37:58.345Z,48.45
2018-08-10T21:43:01.887Z,46.77
2018-08-10T21:48:05.527Z,47.98
2018-08-10T21:53:10.255Z,48.01
2018-08-10T21:58:13.995Z,47.52
2018-08-10T22:03:17.925Z,46.56
2018-08-10T22:08:22.457Z,48.07
2018-08-10T22:13:31.471Z,47.41
2018-08-10T22:18:40.283Z,47.04
2018-08-10T22:23:43.861Z,47.47
2018-08-10T22:28:47.442Z,46.62
2018-08-10T22:33:51.384Z,46.36
2018-08-10T22:38:57.663Z,48.15
2018-08-10T22:44:01.415Z,46.92
2018-08-10T22:49:04.999Z,46.91
2018-08-10T22:54:09.027Z,47.15
2018-08-10T22:59:12.700Z,48.22
2018-08-10T23:04:16.461Z,47.66
2018-08-10T23:09:20.111Z,48.06
2018-08-10T23:14:23.732Z,47.42
2018-08-10T23:19:27.311Z,48.24
2018-08-10T23:24:30.917Z,48.06
2018-08-10T23:29:34.549Z,47.27
2018-08-10T23:34:38.144Z,48.85
2018-08-10T23:39:41.928Z,49.72
2018-08-10T23:44:46.255Z,49.65
2018-08-10T23:49:50.024Z,48.16
2018-08-10T23:54:53.666Z,48.02
2018-08-10T23:59:57.646Z,48.25
